Hovedside
METAR-TAF:

METAR-TAF

Lufthavner :

Joensuu lufthavn

Joensuu, Finland

breddegrad: 62-40N, lengdegrad: 029-38E, høyde over havet: 119 m

Gjeldene værobservasjon

Denne rapporten ble laget for 11 minutter siden, klokken 16:20 UTC
Vind 6 kt fra Nordvest
Temperatur 15°C
Luftfuktighet 77%
Trykk 1014 hPa
Sikt 10 km eller mer
Brutte skyer i en høyde av 3000 ft
lette regnbyger,

METAR: EFJO 241620Z AUTO 32006KT 9999 -SHRA BKN030 //////CB 15/11 Q1014

Tid: 19:31 (16:31 UTC)

Varsel

Denne rapporten ble laget for 2 timer og 4 minutter siden, klokken 14:27 UTC
Varsel gyldig fra 24. klokken 15 UTC til 24. klokken 18 UTC
Vind 6 kt fra Vest
Sikt 10 km eller mer
Få skyer i en høyde av 3500 ft
Midlertidig
fra 24. klokken 15 UTC til 24. klokken 18 UTC
Spredte skyer i en høyde av 3500 ft, Bygeskyer.
regnbyger
Sannsynlighet 30% :
Midlertidig
fra 24. klokken 15 UTC til 24. klokken 18 UTC
torden,

TAF: EFJO 241427Z 2415/2418 26006KT 9999 FEW035 TEMPO 2415/2418 SHRA SCT035CB PROB30 TEMPO 2415/2418 TS

Værobservasjoner og værvarsel for over 4000 flyplasser (METAR- og TAF-rapporter).

Tilgjengelige stasjoner er representert av de røde og gule prikkene på kartet.

Hold musepekeren over prikken for å se navnet på stasjonen.

Klikk så for å se værobservasjoner og -varsler.

For å forandre kartet kan du klikke på den grønne knappen med svart kryss for å zoome inn, på den grønne knappen med strek for å zoome ut, eller på de grønne pilene for å se tilstøtende kart.


METAR-TAF: